createdAt,value
2023-02-28T00:05:35.351Z,1.10
2023-02-28T00:16:35.299Z,1.90
2023-02-28T00:27:35.104Z,1.20
2023-02-28T00:38:34.980Z,1.80
2023-02-28T00:49:34.876Z,1.60
2023-02-28T01:00:34.718Z,1.70
2023-02-28T01:11:34.602Z,1.60
2023-02-28T01:22:34.481Z,1.80
2023-02-28T01:33:34.359Z,1.70
2023-02-28T01:44:34.229Z,2.10
2023-02-28T01:55:34.132Z,2.20
2023-02-28T02:06:33.981Z,1.80
2023-02-28T02:17:33.870Z,2.00
2023-02-28T02:28:33.774Z,1.50
2023-02-28T02:39:33.613Z,2.30
2023-02-28T02:50:33.495Z,1.90
2023-02-28T03:01:33.406Z,2.60
2023-02-28T03:12:33.266Z,2.60
2023-02-28T03:23:33.192Z,2.90
2023-02-28T03:31:46.833Z,3.60
2023-02-28T03:42:51.607Z,2.40
2023-02-28T03:53:51.486Z,2.80
2023-02-28T04:04:51.430Z,2.10
2023-02-28T04:15:51.347Z,2.10
2023-02-28T04:26:51.118Z,2.40
2023-02-28T04:37:51.002Z,2.90
2023-02-28T04:48:50.878Z,2.90
2023-02-28T04:59:50.768Z,3.00
2023-02-28T05:10:50.687Z,2.60
2023-02-28T05:21:50.523Z,2.30
2023-02-28T05:32:50.394Z,2.30
2023-02-28T05:43:50.271Z,2.60
2023-02-28T05:54:50.164Z,2.20
2023-02-28T06:05:50.035Z,2.70
2023-02-28T06:16:50.073Z,2.30
2023-02-28T06:27:49.794Z,3.30
2023-02-28T06:38:49.703Z,3.60
2023-02-28T06:49:49.553Z,3.10
2023-02-28T07:00:49.432Z,3.30
2023-02-28T07:11:49.322Z,2.40
2023-02-28T07:22:49.187Z,2.30
2023-02-28T07:33:49.071Z,3.70
2023-02-28T07:44:48.961Z,3.10
2023-02-28T07:55:48.833Z,4.20
2023-02-28T08:06:48.717Z,5.10
2023-02-28T08:17:48.617Z,4.70
2023-02-28T08:28:48.473Z,4.30
2023-02-28T08:39:48.347Z,3.80
2023-02-28T08:50:55.753Z,4.00
2023-02-28T09:01:48.123Z,3.90
2023-02-28T09:12:47.990Z,1.20
2023-02-28T09:23:47.889Z,4.90
2023-02-28T09:34:47.738Z,4.90
2023-02-28T09:45:47.683Z,5.30
2023-02-28T09:56:47.533Z,3.90
2023-02-28T10:07:47.376Z,5.20
2023-02-28T10:18:47.260Z,4.90
2023-02-28T10:29:47.149Z,4.70
2023-02-28T10:40:47.002Z,5.50
2023-02-28T10:51:46.879Z,6.20
2023-02-28T11:02:46.771Z,3.10
2023-02-28T11:13:46.630Z,5.00
2023-02-28T11:24:46.530Z,5.80
2023-02-28T11:35:46.409Z,6.00
2023-02-28T11:46:46.340Z,5.90
2023-02-28T11:57:46.141Z,6.10
2023-02-28T12:08:46.022Z,5.10
2023-02-28T12:19:45.948Z,5.40
2023-02-28T12:30:45.778Z,5.30
2023-02-28T12:41:45.655Z,5.40
2023-02-28T12:52:45.554Z,6.10
2023-02-28T13:03:45.403Z,5.70
2023-02-28T13:14:45.292Z,6.50
2023-02-28T13:25:45.170Z,6.10
2023-02-28T13:36:45.047Z,4.20
2023-02-28T13:47:44.939Z,5.00
2023-02-28T13:58:44.801Z,6.70
2023-02-28T14:09:44.669Z,6.20
2023-02-28T14:20:44.568Z,7.50
2023-02-28T14:31:44.541Z,6.60
2023-02-28T14:42:44.306Z,7.10
2023-02-28T14:53:44.237Z,7.50
2023-02-28T15:04:44.126Z,6.70
2023-02-28T15:15:51.667Z,6.30
2023-02-28T15:26:43.845Z,6.50
2023-02-28T15:37:43.718Z,6.40
2023-02-28T15:48:43.596Z,5.90
2023-02-28T15:59:43.478Z,7.10
2023-02-28T16:10:43.401Z,6.60
2023-02-28T16:21:43.211Z,6.60
2023-02-28T16:32:43.100Z,7.10
2023-02-28T16:43:42.969Z,6.90
2023-02-28T16:54:42.868Z,5.40
2023-02-28T17:05:42.713Z,6.80
2023-02-28T17:16:42.644Z,5.30
2023-02-28T17:27:42.473Z,5.10
2023-02-28T17:38:42.351Z,4.80
2023-02-28T17:49:42.239Z,5.70
2023-02-28T18:00:42.165Z,7.40
2023-02-28T18:11:41.988Z,6.40
2023-02-28T18:22:41.866Z,7.20
2023-02-28T18:33:41.770Z,7.80
2023-02-28T18:44:41.616Z,9.20
2023-02-28T18:55:41.486Z,5.70
2023-02-28T19:06:41.379Z,6.60
2023-02-28T19:17:41.242Z,5.10
2023-02-28T19:28:41.130Z,6.20
2023-02-28T19:39:41.037Z,5.20
2023-02-28T19:50:40.878Z,5.50
2023-02-28T20:01:40.785Z,5.90
2023-02-28T20:12:40.644Z,5.80
2023-02-28T20:23:40.527Z,6.10
2023-02-28T20:34:40.385Z,5.90
2023-02-28T20:45:40.295Z,6.20
2023-02-28T20:56:40.164Z,6.20
2023-02-28T21:07:40.065Z,6.60
2023-02-28T21:18:39.929Z,6.70
2023-02-28T21:29:39.823Z,6.70
2023-02-28T21:40:39.679Z,5.40
2023-02-28T21:51:39.892Z,5.70
2023-02-28T22:02:39.453Z,6.90
2023-02-28T22:13:39.342Z,6.40
2023-02-28T22:24:39.183Z,5.90
2023-02-28T22:35:39.120Z,6.20
2023-02-28T22:46:39.973Z,6.80
2023-02-28T22:57:38.825Z,5.50
2023-02-28T23:08:38.703Z,6.70
2023-02-28T23:19:38.617Z,7.00
2023-02-28T23:30:38.469Z,6.90
2023-02-28T23:41:38.354Z,4.90
2023-02-28T23:52:38.234Z,5.60
